ADDS METAR Data INFO
IDs: Format: Raw Decoded Include TAF

Data at: 2259 UTC 21 Feb 2018

KVDF 212255Z AUTO 09006KT 10SM SCT055 27/17 A3031 RMK AO2
KVDF 212235Z AUTO 10007KT 10SM SCT055 28/17 A3030 RMK AO2
KVDF 212215Z AUTO 13004KT 10SM SCT055 28/17 A3030 RMK AO2
KVDF 212155Z AUTO 10005KT 10SM CLR 30/17 A3030 RMK AO2
KVDF 212135Z AUTO 12004KT 10SM SCT050 30/17 A3030 RMK AO2
KVDF 212115Z AUTO 09005KT 10SM SCT050 30/17 A3030 RMK AO2
KVDF 212055Z AUTO 12006KT 10SM SCT050 30/17 A3030 RMK AO2
KVDF 212035Z AUTO 10007KT 10SM SCT050 30/17 A3031 RMK AO2
KVDF 212015Z AUTO 13007KT 10SM CLR 29/17 A3031 RMK AO2
KVDF 211955Z AUTO 08006KT 10SM SCT050 29/17 A3032 RMK AO2
KVDF 211935Z AUTO 10007KT 10SM OVC050 30/17 A3032 RMK AO2
KVDF 211915Z AUTO 09007KT 10SM BKN048 30/18 A3033 RMK AO2
KVDF 211855Z AUTO 08006KT 10SM BKN046 28/18 A3033 RMK AO2
KVDF 211835Z AUTO 09006KT 10SM OVC046 30/18 A3034 RMK AO2
KVDF 211815Z AUTO 12007G15KT 10SM BKN044 30/18 A3035 RMK AO2
KVDF 211755Z AUTO 11007KT 10SM SCT044 30/18 A3035 RMK AO2
KVDF 211735Z AUTO 12009G15KT 10SM SCT044 30/18 A3037 RMK AO2
KVDF 211715Z AUTO 14008KT 085V155 10SM SCT042 28/18 A3038 RMK AO2
KVDF 211655Z AUTO 10008G14KT 10SM BKN040 28/18 A3039 RMK AO2
KVDF 211635Z AUTO 10008KT 10SM BKN036 28/19 A3039 RMK AO2
KVDF 211615Z AUTO 10SM BKN034 27/18 A3040 RMK AO2
KVDF 211555Z AUTO 12010G14KT 10SM BKN032 27/19 A3040 RMK AO2
KVDF 211535Z AUTO 12008G15KT 075V135 10SM SCT025 BKN029 26/19 A3040 RMK AO2
KVDF 211515Z AUTO 13010G14KT 095V175 10SM SCT024 27/20 A3040 RMK AO2
KVDF 211455Z AUTO 11007G15KT 10SM SCT022 26/20 A3040 RMK AO2
KVDF 211435Z AUTO 12008KT 10SM SCT016 25/20 A3040 RMK AO2
KVDF 211415Z AUTO 11006G14KT 10SM SCT013 24/21 A3040 RMK AO2
KVDF 211355Z AUTO 12004KT 10SM SCT009 SCT014 23/21 A3039 RMK AO2
KVDF 211335Z AUTO 11005KT 10SM SCT009 23/21 A3039 RMK AO2
KVDF 211315Z AUTO 11004KT 7SM BKN007 22/21 A3039 RMK AO2
KVDF 211255Z AUTO 00000KT 7SM SCT007 21/20 A3038 RMK AO2
KVDF 211235Z AUTO 10003KT 7SM SCT007 21/20 A3038 RMK AO2
KVDF 210755Z AUTO 12004KT 10SM CLR 22/21 A3033 RMK AO2
KVDF 210735Z AUTO 12006KT 10SM CLR 22/21 A3034 RMK AO2
KVDF 210715Z AUTO 13004KT 10SM SCT010 22/21 A3034 RMK AO2
KVDF 210655Z AUTO 12005KT 10SM BKN010 BKN017 22/21 A3034 RMK AO2
KVDF 210635Z AUTO 11006KT 10SM BKN010 OVC019 22/21 A3034 RMK AO2
KVDF 210615Z AUTO 12005KT 10SM SCT010 SCT019 22/21 A3034 RMK AO2
KVDF 210555Z AUTO 12006KT 10SM CLR 22/21 A3034 RMK AO2
KVDF 201515Z AUTO 12008G16KT 10SM BKN024 OVC110 26/20 A3035 RMK AO2
KVDF 201455Z AUTO 14009G14KT 10SM BKN020 BKN065 OVC110 26/20 A3035 RMK AO2
KVDF 201435Z AUTO 13010G15KT 10SM SCT018 BKN065 OVC110 25/20 A3035 RMK AO2
KVDF 201415Z AUTO 12010G15KT 085V145 10SM BKN016 BKN110 25/20 A3035 RMK AO2
KVDF 201355Z AUTO 11007KT 10SM SCT016 BKN110 24/20 A3034 RMK AO2
KVDF 201335Z AUTO 11009G14KT 10SM SCT110 23/20 A3033 RMK AO2
KVDF 201315Z AUTO 11005KT 10SM BKN110 23/20 A3033 RMK AO2
KVDF 201255Z AUTO 10004KT 10SM BKN120 22/20 A3032 RMK AO2
KVDF 201235Z AUTO 00000KT 10SM CLR 20/19 A3032 RMK AO2
KVDF 201215Z AUTO 07003KT 10SM CLR 20/18 A3031 RMK AO2
KVDF 201155Z AUTO 07003KT 10SM CLR 20/18 A3030 RMK AO2
KVDF 201135Z AUTO 08004KT 10SM CLR 20/18 A3030 RMK AO2
KVDF 201115Z AUTO 08004KT 10SM CLR 20/19 A3029 RMK AO2